sensor_id;sensor_type;location;lat;lon;timestamp;P1;durP1;ratioP1;P2;durP2;ratioP2
60610;SDS011;46439;51.164;13.572;2023-01-05T00:01:08;1.80;;;0.80;;
60610;SDS011;46439;51.164;13.572;2023-01-05T00:03:38;2.20;;;0.90;;
60610;SDS011;46439;51.164;13.572;2023-01-05T00:06:09;2.00;;;0.80;;
60610;SDS011;46439;51.164;13.572;2023-01-05T00:08:40;0.80;;;0.80;;
60610;SDS011;46439;51.164;13.572;2023-01-05T00:11:10;3.60;;;1.00;;
60610;SDS011;46439;51.164;13.572;2023-01-05T00:13:59;1.10;;;0.90;;
60610;SDS011;46439;51.164;13.572;2023-01-05T00:16:47;1.50;;;0.80;;
60610;SDS011;46439;51.164;13.572;2023-01-05T00:19:35;0.80;;;0.60;;
60610;SDS011;46439;51.164;13.572;2023-01-05T00:22:23;0.60;;;0.60;;
60610;SDS011;46439;51.164;13.572;2023-01-05T00:25:05;1.00;;;0.70;;
60610;SDS011;46439;51.164;13.572;2023-01-05T00:27:35;2.50;;;0.80;;
60610;SDS011;46439;51.164;13.572;2023-01-05T00:30:05;1.50;;;0.70;;
60610;SDS011;46439;51.164;13.572;2023-01-05T00:32:35;2.20;;;0.70;;
60610;SDS011;46439;51.164;13.572;2023-01-05T00:35:05;3.10;;;0.80;;
60610;SDS011;46439;51.164;13.572;2023-01-05T00:37:35;2.00;;;1.10;;
60610;SDS011;46439;51.164;13.572;2023-01-05T00:40:05;1.00;;;0.60;;
60610;SDS011;46439;51.164;13.572;2023-01-05T00:42:36;2.00;;;0.70;;
60610;SDS011;46439;51.164;13.572;2023-01-05T00:45:06;2.80;;;0.80;;
60610;SDS011;46439;51.164;13.572;2023-01-05T00:47:36;2.30;;;0.90;;
60610;SDS011;46439;51.164;13.572;2023-01-05T00:50:07;0.90;;;0.90;;
60610;SDS011;46439;51.164;13.572;2023-01-05T00:52:38;2.90;;;1.00;;
60610;SDS011;46439;51.164;13.572;2023-01-05T00:55:07;3.30;;;1.00;;
60610;SDS011;46439;51.164;13.572;2023-01-05T00:57:36;2.20;;;0.80;;
60610;SDS011;46439;51.164;13.572;2023-01-05T01:00:06;3.80;;;0.90;;
60610;SDS011;46439;51.164;13.572;2023-01-05T01:02:37;4.50;;;1.20;;
60610;SDS011;46439;51.164;13.572;2023-01-05T01:05:07;3.20;;;0.90;;
60610;SDS011;46439;51.164;13.572;2023-01-05T01:19:33;1.70;;;0.80;;
60610;SDS011;46439;51.164;13.572;2023-01-05T01:22:01;2.20;;;0.90;;
60610;SDS011;46439;51.164;13.572;2023-01-05T01:24:30;1.40;;;0.80;;
60610;SDS011;46439;51.164;13.572;2023-01-05T01:26:58;2.80;;;1.10;;
60610;SDS011;46439;51.164;13.572;2023-01-05T01:29:27;2.50;;;0.80;;
60610;SDS011;46439;51.164;13.572;2023-01-05T01:31:56;2.50;;;1.00;;
60610;SDS011;46439;51.164;13.572;2023-01-05T01:34:25;2.80;;;1.10;;
60610;SDS011;46439;51.164;13.572;2023-01-05T01:36:54;6.60;;;1.20;;
60610;SDS011;46439;51.164;13.572;2023-01-05T01:39:23;2.50;;;1.20;;
60610;SDS011;46439;51.164;13.572;2023-01-05T01:41:51;2.20;;;1.10;;
60610;SDS011;46439;51.164;13.572;2023-01-05T01:47:16;2.10;;;1.10;;
60610;SDS011;46439;51.164;13.572;2023-01-05T01:49:48;2.00;;;1.10;;
60610;SDS011;46439;51.164;13.572;2023-01-05T01:52:19;3.50;;;1.20;;
60610;SDS011;46439;51.164;13.572;2023-01-05T01:54:51;3.50;;;1.10;;
60610;SDS011;46439;51.164;13.572;2023-01-05T01:57:20;2.90;;;1.20;;
60610;SDS011;46439;51.164;13.572;2023-01-05T01:59:51;3.50;;;1.40;;
60610;SDS011;46439;51.164;13.572;2023-01-05T02:02:21;4.10;;;1.00;;
60610;SDS011;46439;51.164;13.572;2023-01-05T02:04:51;4.80;;;1.40;;
60610;SDS011;46439;51.164;13.572;2023-01-05T02:07:23;2.70;;;1.20;;
60610;SDS011;46439;51.164;13.572;2023-01-05T02:09:52;3.50;;;1.30;;
60610;SDS011;46439;51.164;13.572;2023-01-05T02:12:25;4.20;;;1.30;;
60610;SDS011;46439;51.164;13.572;2023-01-05T02:15:08;5.90;;;1.40;;
60610;SDS011;46439;51.164;13.572;2023-01-05T02:17:45;5.90;;;1.50;;
60610;SDS011;46439;51.164;13.572;2023-01-05T02:20:37;3.40;;;1.40;;
60610;SDS011;46439;51.164;13.572;2023-01-05T02:26:29;6.20;;;1.80;;
60610;SDS011;46439;51.164;13.572;2023-01-05T02:29:26;4.90;;;1.60;;
60610;SDS011;46439;51.164;13.572;2023-01-05T02:32:12;5.80;;;1.70;;
60610;SDS011;46439;51.164;13.572;2023-01-05T02:34:49;5.60;;;1.60;;
60610;SDS011;46439;51.164;13.572;2023-01-05T02:37:25;3.40;;;1.40;;
60610;SDS011;46439;51.164;13.572;2023-01-05T02:39:58;5.30;;;1.40;;
60610;SDS011;46439;51.164;13.572;2023-01-05T02:42:34;3.30;;;1.20;;
60610;SDS011;46439;51.164;13.572;2023-01-05T02:45:06;3.90;;;1.70;;
60610;SDS011;46439;51.164;13.572;2023-01-05T02:47:36;2.50;;;1.30;;
60610;SDS011;46439;51.164;13.572;2023-01-05T02:50:08;2.30;;;1.30;;
60610;SDS011;46439;51.164;13.572;2023-01-05T02:52:43;5.00;;;1.80;;
60610;SDS011;46439;51.164;13.572;2023-01-05T02:55:20;5.60;;;1.50;;
60610;SDS011;46439;51.164;13.572;2023-01-05T02:57:55;7.20;;;1.90;;
60610;SDS011;46439;51.164;13.572;2023-01-05T03:00:29;4.90;;;1.60;;
60610;SDS011;46439;51.164;13.572;2023-01-05T03:03:03;3.50;;;1.40;;
60610;SDS011;46439;51.164;13.572;2023-01-05T03:05:39;8.30;;;1.70;;
60610;SDS011;46439;51.164;13.572;2023-01-05T03:08:12;5.50;;;1.90;;
60610;SDS011;46439;51.164;13.572;2023-01-05T03:10:51;5.10;;;1.70;;
60610;SDS011;46439;51.164;13.572;2023-01-05T03:13:49;4.40;;;1.40;;
60610;SDS011;46439;51.164;13.572;2023-01-05T03:16:22;6.40;;;1.60;;
60610;SDS011;46439;51.164;13.572;2023-01-05T03:18:55;3.50;;;1.30;;
60610;SDS011;46439;51.164;13.572;2023-01-05T03:21:46;3.60;;;1.70;;
60610;SDS011;46439;51.164;13.572;2023-01-05T03:24:34;4.40;;;1.60;;
60610;SDS011;46439;51.164;13.572;2023-01-05T03:27:22;4.50;;;1.70;;
60610;SDS011;46439;51.164;13.572;2023-01-05T03:30:11;5.10;;;1.50;;
60610;SDS011;46439;51.164;13.572;2023-01-05T03:33:01;6.00;;;1.70;;
60610;SDS011;46439;51.164;13.572;2023-01-05T03:35:55;4.40;;;1.70;;
60610;SDS011;46439;51.164;13.572;2023-01-05T03:38:26;5.90;;;1.60;;
60610;SDS011;46439;51.164;13.572;2023-01-05T03:40:58;5.40;;;1.50;;
60610;SDS011;46439;51.164;13.572;2023-01-05T03:43:30;3.80;;;1.40;;
60610;SDS011;46439;51.164;13.572;2023-01-05T03:46:01;3.30;;;1.50;;
60610;SDS011;46439;51.164;13.572;2023-01-05T03:48:39;5.50;;;1.70;;
60610;SDS011;46439;51.164;13.572;2023-01-05T03:51:08;6.40;;;1.50;;
60610;SDS011;46439;51.164;13.572;2023-01-05T03:53:37;4.80;;;1.50;;
60610;SDS011;46439;51.164;13.572;2023-01-05T03:56:06;5.70;;;1.80;;
60610;SDS011;46439;51.164;13.572;2023-01-05T03:58:34;4.40;;;1.50;;
60610;SDS011;46439;51.164;13.572;2023-01-05T04:01:03;4.50;;;1.90;;
60610;SDS011;46439;51.164;13.572;2023-01-05T04:03:32;7.80;;;2.20;;
60610;SDS011;46439;51.164;13.572;2023-01-05T04:06:01;5.20;;;1.60;;
60610;SDS011;46439;51.164;13.572;2023-01-05T04:08:29;5.70;;;1.60;;
60610;SDS011;46439;51.164;13.572;2023-01-05T04:10:58;6.10;;;2.10;;
60610;SDS011;46439;51.164;13.572;2023-01-05T04:13:38;4.20;;;1.60;;
60610;SDS011;46439;51.164;13.572;2023-01-05T04:16:07;5.20;;;1.90;;
60610;SDS011;46439;51.164;13.572;2023-01-05T04:18:36;10.70;;;2.30;;
60610;SDS011;46439;51.164;13.572;2023-01-05T04:21:04;6.60;;;2.10;;
60610;SDS011;46439;51.164;13.572;2023-01-05T04:23:34;6.70;;;2.10;;
60610;SDS011;46439;51.164;13.572;2023-01-05T04:26:03;9.60;;;2.80;;
60610;SDS011;46439;51.164;13.572;2023-01-05T04:28:32;3.60;;;2.00;;
60610;SDS011;46439;51.164;13.572;2023-01-05T04:31:00;5.20;;;2.00;;
60610;SDS011;46439;51.164;13.572;2023-01-05T04:33:29;4.40;;;1.90;;
60610;SDS011;46439;51.164;13.572;2023-01-05T04:35:57;9.90;;;3.20;;
60610;SDS011;46439;51.164;13.572;2023-01-05T04:38:26;6.70;;;2.50;;
60610;SDS011;46439;51.164;13.572;2023-01-05T04:40:54;7.80;;;2.70;;
60610;SDS011;46439;51.164;13.572;2023-01-05T04:43:23;7.00;;;2.40;;
60610;SDS011;46439;51.164;13.572;2023-01-05T04:45:51;5.90;;;2.20;;
60610;SDS011;46439;51.164;13.572;2023-01-05T04:48:20;5.60;;;2.70;;
60610;SDS011;46439;51.164;13.572;2023-01-05T04:50:52;8.20;;;2.30;;
60610;SDS011;46439;51.164;13.572;2023-01-05T04:53:21;6.40;;;2.40;;
60610;SDS011;46439;51.164;13.572;2023-01-05T04:55:50;6.90;;;2.60;;
60610;SDS011;46439;51.164;13.572;2023-01-05T04:58:19;5.60;;;2.10;;
60610;SDS011;46439;51.164;13.572;2023-01-05T05:00:48;7.30;;;2.60;;
60610;SDS011;46439;51.164;13.572;2023-01-05T05:03:16;6.50;;;2.30;;
60610;SDS011;46439;51.164;13.572;2023-01-05T05:05:45;5.50;;;2.10;;
60610;SDS011;46439;51.164;13.572;2023-01-05T05:08:13;6.40;;;2.40;;
60610;SDS011;46439;51.164;13.572;2023-01-05T05:10:42;6.10;;;2.70;;
60610;SDS011;46439;51.164;13.572;2023-01-05T05:13:10;6.80;;;3.60;;
60610;SDS011;46439;51.164;13.572;2023-01-05T05:15:39;9.00;;;4.40;;
60610;SDS011;46439;51.164;13.572;2023-01-05T05:18:09;8.20;;;4.80;;
60610;SDS011;46439;51.164;13.572;2023-01-05T05:20:38;8.90;;;3.40;;
60610;SDS011;46439;51.164;13.572;2023-01-05T05:23:09;8.80;;;3.30;;
60610;SDS011;46439;51.164;13.572;2023-01-05T05:25:38;8.30;;;2.70;;
60610;SDS011;46439;51.164;13.572;2023-01-05T05:28:06;5.90;;;2.00;;
60610;SDS011;46439;51.164;13.572;2023-01-05T05:30:35;8.70;;;3.30;;
60610;SDS011;46439;51.164;13.572;2023-01-05T05:33:04;6.00;;;2.80;;
60610;SDS011;46439;51.164;13.572;2023-01-05T05:35:32;7.90;;;2.40;;
60610;SDS011;46439;51.164;13.572;2023-01-05T05:38:01;5.70;;;2.30;;
60610;SDS011;46439;51.164;13.572;2023-01-05T05:40:29;5.70;;;1.80;;
60610;SDS011;46439;51.164;13.572;2023-01-05T05:42:57;7.00;;;2.20;;
60610;SDS011;46439;51.164;13.572;2023-01-05T05:45:26;6.30;;;1.80;;
60610;SDS011;46439;51.164;13.572;2023-01-05T05:47:54;6.20;;;1.90;;
60610;SDS011;46439;51.164;13.572;2023-01-05T05:50:23;6.10;;;2.00;;
60610;SDS011;46439;51.164;13.572;2023-01-05T05:52:52;8.40;;;3.00;;
60610;SDS011;46439;51.164;13.572;2023-01-05T05:55:20;9.00;;;2.90;;
60610;SDS011;46439;51.164;13.572;2023-01-05T05:57:49;6.00;;;2.40;;
60610;SDS011;46439;51.164;13.572;2023-01-05T06:00:17;6.60;;;2.60;;
60610;SDS011;46439;51.164;13.572;2023-01-05T06:02:46;6.50;;;2.00;;
60610;SDS011;46439;51.164;13.572;2023-01-05T06:05:14;7.30;;;3.10;;
60610;SDS011;46439;51.164;13.572;2023-01-05T06:07:43;5.20;;;2.00;;
60610;SDS011;46439;51.164;13.572;2023-01-05T06:10:11;5.10;;;2.10;;
60610;SDS011;46439;51.164;13.572;2023-01-05T06:12:40;6.10;;;1.70;;
60610;SDS011;46439;51.164;13.572;2023-01-05T06:15:09;5.40;;;1.90;;
60610;SDS011;46439;51.164;13.572;2023-01-05T06:17:38;7.70;;;1.90;;
60610;SDS011;46439;51.164;13.572;2023-01-05T06:20:08;3.70;;;1.60;;
60610;SDS011;46439;51.164;13.572;2023-01-05T06:22:36;7.50;;;2.20;;
60610;SDS011;46439;51.164;13.572;2023-01-05T06:25:06;4.50;;;1.70;;
60610;SDS011;46439;51.164;13.572;2023-01-05T06:27:35;6.80;;;2.00;;
60610;SDS011;46439;51.164;13.572;2023-01-05T06:30:04;5.40;;;2.00;;
60610;SDS011;46439;51.164;13.572;2023-01-05T06:32:34;5.00;;;1.90;;
60610;SDS011;46439;51.164;13.572;2023-01-05T06:35:02;7.10;;;2.30;;
60610;SDS011;46439;51.164;13.572;2023-01-05T06:37:32;5.50;;;2.20;;
60610;SDS011;46439;51.164;13.572;2023-01-05T06:40:00;6.80;;;1.90;;
60610;SDS011;46439;51.164;13.572;2023-01-05T06:42:29;5.50;;;1.60;;
60610;SDS011;46439;51.164;13.572;2023-01-05T06:44:58;5.90;;;1.80;;
60610;SDS011;46439;51.164;13.572;2023-01-05T06:47:27;4.80;;;1.80;;
60610;SDS011;46439;51.164;13.572;2023-01-05T06:49:55;4.70;;;1.40;;
60610;SDS011;46439;51.164;13.572;2023-01-05T06:52:24;5.20;;;2.10;;
60610;SDS011;46439;51.164;13.572;2023-01-05T06:54:52;4.80;;;2.10;;
60610;SDS011;46439;51.164;13.572;2023-01-05T06:57:21;6.40;;;2.80;;
60610;SDS011;46439;51.164;13.572;2023-01-05T06:59:50;7.00;;;2.50;;
60610;SDS011;46439;51.164;13.572;2023-01-05T07:02:18;5.60;;;2.20;;
60610;SDS011;46439;51.164;13.572;2023-01-05T07:04:47;6.00;;;1.80;;
60610;SDS011;46439;51.164;13.572;2023-01-05T07:07:15;5.50;;;2.60;;
60610;SDS011;46439;51.164;13.572;2023-01-05T07:09:44;5.80;;;1.90;;
60610;SDS011;46439;51.164;13.572;2023-01-05T07:12:15;5.90;;;1.90;;
60610;SDS011;46439;51.164;13.572;2023-01-05T07:14:43;5.90;;;1.80;;
60610;SDS011;46439;51.164;13.572;2023-01-05T07:17:12;3.70;;;2.10;;
60610;SDS011;46439;51.164;13.572;2023-01-05T07:19:40;4.70;;;1.70;;
60610;SDS011;46439;51.164;13.572;2023-01-05T07:22:09;7.10;;;2.00;;
60610;SDS011;46439;51.164;13.572;2023-01-05T07:24:38;6.00;;;1.80;;
60610;SDS011;46439;51.164;13.572;2023-01-05T07:27:06;3.70;;;1.70;;
60610;SDS011;46439;51.164;13.572;2023-01-05T07:29:35;6.20;;;2.10;;
60610;SDS011;46439;51.164;13.572;2023-01-05T07:32:03;5.60;;;2.10;;
60610;SDS011;46439;51.164;13.572;2023-01-05T07:34:32;5.70;;;2.20;;
60610;SDS011;46439;51.164;13.572;2023-01-05T07:37:01;5.40;;;2.00;;
60610;SDS011;46439;51.164;13.572;2023-01-05T07:39:30;4.80;;;1.90;;
60610;SDS011;46439;51.164;13.572;2023-01-05T07:41:58;6.00;;;1.60;;
60610;SDS011;46439;51.164;13.572;2023-01-05T07:44:26;5.10;;;1.90;;
60610;SDS011;46439;51.164;13.572;2023-01-05T07:46:55;5.40;;;1.70;;
60610;SDS011;46439;51.164;13.572;2023-01-05T07:49:24;4.50;;;1.70;;
60610;SDS011;46439;51.164;13.572;2023-01-05T07:51:53;5.30;;;1.50;;
60610;SDS011;46439;51.164;13.572;2023-01-05T07:54:21;5.00;;;2.00;;
60610;SDS011;46439;51.164;13.572;2023-01-05T07:56:50;3.20;;;1.40;;
60610;SDS011;46439;51.164;13.572;2023-01-05T07:59:18;3.70;;;1.60;;
60610;SDS011;46439;51.164;13.572;2023-01-05T08:01:50;6.40;;;1.80;;
60610;SDS011;46439;51.164;13.572;2023-01-05T08:04:19;3.30;;;1.50;;
60610;SDS011;46439;51.164;13.572;2023-01-05T08:06:47;4.30;;;1.50;;
60610;SDS011;46439;51.164;13.572;2023-01-05T08:09:18;2.70;;;1.50;;
60610;SDS011;46439;51.164;13.572;2023-01-05T08:12:05;4.40;;;1.90;;
60610;SDS011;46439;51.164;13.572;2023-01-05T08:14:34;3.70;;;1.90;;
60610;SDS011;46439;51.164;13.572;2023-01-05T08:17:03;7.40;;;2.80;;
60610;SDS011;46439;51.164;13.572;2023-01-05T08:19:31;6.90;;;2.50;;
60610;SDS011;46439;51.164;13.572;2023-01-05T08:22:00;5.60;;;2.30;;
60610;SDS011;46439;51.164;13.572;2023-01-05T08:24:28;3.80;;;1.70;;
60610;SDS011;46439;51.164;13.572;2023-01-05T08:26:56;5.80;;;1.90;;
60610;SDS011;46439;51.164;13.572;2023-01-05T08:29:25;4.50;;;1.50;;
60610;SDS011;46439;51.164;13.572;2023-01-05T08:31:53;2.40;;;1.60;;
60610;SDS011;46439;51.164;13.572;2023-01-05T08:34:22;5.90;;;1.70;;
60610;SDS011;46439;51.164;13.572;2023-01-05T08:36:50;5.50;;;2.00;;
60610;SDS011;46439;51.164;13.572;2023-01-05T08:39:19;4.80;;;2.00;;
60610;SDS011;46439;51.164;13.572;2023-01-05T08:41:47;4.60;;;1.50;;
60610;SDS011;46439;51.164;13.572;2023-01-05T08:44:16;4.70;;;1.80;;
60610;SDS011;46439;51.164;13.572;2023-01-05T08:46:44;5.50;;;1.70;;
60610;SDS011;46439;51.164;13.572;2023-01-05T08:49:13;6.50;;;1.60;;
60610;SDS011;46439;51.164;13.572;2023-01-05T08:51:42;4.70;;;1.70;;
60610;SDS011;46439;51.164;13.572;2023-01-05T08:54:10;6.20;;;2.10;;
60610;SDS011;46439;51.164;13.572;2023-01-05T08:56:40;5.60;;;1.80;;
60610;SDS011;46439;51.164;13.572;2023-01-05T08:59:13;7.40;;;2.00;;
60610;SDS011;46439;51.164;13.572;2023-01-05T09:01:42;5.40;;;1.90;;
60610;SDS011;46439;51.164;13.572;2023-01-05T09:04:10;4.60;;;1.60;;
60610;SDS011;46439;51.164;13.572;2023-01-05T09:15:25;7.60;;;3.10;;
60610;SDS011;46439;51.164;13.572;2023-01-05T09:17:53;4.80;;;1.90;;
60610;SDS011;46439;51.164;13.572;2023-01-05T09:20:22;5.60;;;1.80;;
60610;SDS011;46439;51.164;13.572;2023-01-05T09:22:50;6.60;;;1.70;;
60610;SDS011;46439;51.164;13.572;2023-01-05T09:25:19;4.40;;;1.50;;
60610;SDS011;46439;51.164;13.572;2023-01-05T09:27:47;5.60;;;1.30;;
60610;SDS011;46439;51.164;13.572;2023-01-05T09:30:16;3.20;;;1.30;;
60610;SDS011;46439;51.164;13.572;2023-01-05T09:32:44;4.30;;;1.60;;
60610;SDS011;46439;51.164;13.572;2023-01-05T09:35:12;4.90;;;1.60;;
60610;SDS011;46439;51.164;13.572;2023-01-05T09:37:41;7.80;;;1.70;;
60610;SDS011;46439;51.164;13.572;2023-01-05T09:40:10;7.80;;;1.80;;
60610;SDS011;46439;51.164;13.572;2023-01-05T09:42:41;4.30;;;1.50;;
60610;SDS011;46439;51.164;13.572;2023-01-05T09:45:12;5.40;;;1.70;;
60610;SDS011;46439;51.164;13.572;2023-01-05T09:47:49;6.00;;;1.60;;
60610;SDS011;46439;51.164;13.572;2023-01-05T09:50:21;5.00;;;1.70;;
60610;SDS011;46439;51.164;13.572;2023-01-05T09:52:52;5.50;;;1.80;;
60610;SDS011;46439;51.164;13.572;2023-01-05T09:55:25;3.90;;;1.40;;
60610;SDS011;46439;51.164;13.572;2023-01-05T09:57:57;4.30;;;1.60;;
60610;SDS011;46439;51.164;13.572;2023-01-05T10:00:30;3.90;;;1.50;;
60610;SDS011;46439;51.164;13.572;2023-01-05T10:03:01;4.30;;;1.80;;
60610;SDS011;46439;51.164;13.572;2023-01-05T10:05:36;3.80;;;1.60;;
60610;SDS011;46439;51.164;13.572;2023-01-05T10:08:11;5.00;;;1.70;;
60610;SDS011;46439;51.164;13.572;2023-01-05T10:10:46;7.30;;;1.90;;
60610;SDS011;46439;51.164;13.572;2023-01-05T10:13:38;4.00;;;1.60;;
60610;SDS011;46439;51.164;13.572;2023-01-05T10:16:24;4.50;;;1.50;;
60610;SDS011;46439;51.164;13.572;2023-01-05T10:18:54;4.70;;;1.40;;
60610;SDS011;46439;51.164;13.572;2023-01-05T10:21:24;5.70;;;1.70;;
60610;SDS011;46439;51.164;13.572;2023-01-05T10:26:54;2.90;;;1.20;;
60610;SDS011;46439;51.164;13.572;2023-01-05T10:29:28;3.50;;;1.20;;
60610;SDS011;46439;51.164;13.572;2023-01-05T10:32:06;3.60;;;1.30;;
60610;SDS011;46439;51.164;13.572;2023-01-05T10:34:44;4.10;;;1.70;;
60610;SDS011;46439;51.164;13.572;2023-01-05T10:37:24;4.70;;;1.80;;
60610;SDS011;46439;51.164;13.572;2023-01-05T10:40:19;5.80;;;1.40;;
60610;SDS011;46439;51.164;13.572;2023-01-05T10:42:57;4.40;;;1.60;;
60610;SDS011;46439;51.164;13.572;2023-01-05T10:45:39;4.00;;;1.40;;
60610;SDS011;46439;51.164;13.572;2023-01-05T10:48:11;4.30;;;1.60;;
60610;SDS011;46439;51.164;13.572;2023-01-05T10:50:42;4.60;;;1.50;;
60610;SDS011;46439;51.164;13.572;2023-01-05T10:53:13;5.80;;;1.50;;
60610;SDS011;46439;51.164;13.572;2023-01-05T10:55:49;4.00;;;1.60;;
60610;SDS011;46439;51.164;13.572;2023-01-05T10:58:25;4.80;;;1.80;;
60610;SDS011;46439;51.164;13.572;2023-01-05T11:00:56;5.10;;;1.90;;
60610;SDS011;46439;51.164;13.572;2023-01-05T11:03:31;4.80;;;2.10;;
60610;SDS011;46439;51.164;13.572;2023-01-05T11:06:02;4.50;;;1.90;;
60610;SDS011;46439;51.164;13.572;2023-01-05T11:08:32;4.40;;;2.10;;
60610;SDS011;46439;51.164;13.572;2023-01-05T11:11:02;7.50;;;1.80;;
60610;SDS011;46439;51.164;13.572;2023-01-05T11:13:34;4.60;;;2.20;;
60610;SDS011;46439;51.164;13.572;2023-01-05T11:16:08;6.80;;;2.70;;
60610;SDS011;46439;51.164;13.572;2023-01-05T11:18:44;5.10;;;2.10;;
60610;SDS011;46439;51.164;13.572;2023-01-05T11:21:18;4.40;;;1.60;;
60610;SDS011;46439;51.164;13.572;2023-01-05T11:23:49;6.60;;;2.00;;
60610;SDS011;46439;51.164;13.572;2023-01-05T11:26:29;5.30;;;1.90;;
60610;SDS011;46439;51.164;13.572;2023-01-05T11:29:00;5.20;;;1.90;;
60610;SDS011;46439;51.164;13.572;2023-01-05T11:31:42;5.50;;;2.30;;
60610;SDS011;46439;51.164;13.572;2023-01-05T11:34:15;6.80;;;2.40;;
60610;SDS011;46439;51.164;13.572;2023-01-05T11:36:57;7.90;;;2.20;;
60610;SDS011;46439;51.164;13.572;2023-01-05T11:39:27;9.70;;;4.20;;
60610;SDS011;46439;51.164;13.572;2023-01-05T11:42:08;17.40;;;7.40;;
60610;SDS011;46439;51.164;13.572;2023-01-05T11:44:42;6.60;;;2.70;;
60610;SDS011;46439;51.164;13.572;2023-01-05T11:47:19;5.00;;;2.10;;
60610;SDS011;46439;51.164;13.572;2023-01-05T11:49:56;5.50;;;2.50;;
60610;SDS011;46439;51.164;13.572;2023-01-05T11:52:32;6.40;;;2.60;;
60610;SDS011;46439;51.164;13.572;2023-01-05T11:57:57;4.60;;;2.60;;
60610;SDS011;46439;51.164;13.572;2023-01-05T12:00:44;4.10;;;2.20;;
60610;SDS011;46439;51.164;13.572;2023-01-05T12:03:27;6.30;;;2.10;;
60610;SDS011;46439;51.164;13.572;2023-01-05T12:06:11;5.80;;;2.10;;
60610;SDS011;46439;51.164;13.572;2023-01-05T12:08:56;3.50;;;1.50;;
60610;SDS011;46439;51.164;13.572;2023-01-05T12:11:31;6.60;;;2.30;;
60610;SDS011;46439;51.164;13.572;2023-01-05T12:14:12;6.70;;;2.00;;
60610;SDS011;46439;51.164;13.572;2023-01-05T12:16:51;4.00;;;2.20;;
60610;SDS011;46439;51.164;13.572;2023-01-05T12:19:34;6.10;;;1.90;;
60610;SDS011;46439;51.164;13.572;2023-01-05T12:22:38;4.30;;;2.00;;
60610;SDS011;46439;51.164;13.572;2023-01-05T12:25:21;6.50;;;2.60;;
60610;SDS011;46439;51.164;13.572;2023-01-05T12:28:18;2.70;;;1.50;;
60610;SDS011;46439;51.164;13.572;2023-01-05T12:30:58;4.00;;;1.90;;
60610;SDS011;46439;51.164;13.572;2023-01-05T12:33:45;5.50;;;2.30;;
60610;SDS011;46439;51.164;13.572;2023-01-05T12:36:30;4.30;;;1.90;;
60610;SDS011;46439;51.164;13.572;2023-01-05T12:39:11;5.80;;;2.40;;
60610;SDS011;46439;51.164;13.572;2023-01-05T12:41:57;4.60;;;1.90;;
60610;SDS011;46439;51.164;13.572;2023-01-05T12:44:45;6.90;;;1.90;;
60610;SDS011;46439;51.164;13.572;2023-01-05T12:47:28;3.80;;;1.90;;
60610;SDS011;46439;51.164;13.572;2023-01-05T12:50:14;5.40;;;2.50;;
60610;SDS011;46439;51.164;13.572;2023-01-05T12:52:53;5.10;;;1.60;;
60610;SDS011;46439;51.164;13.572;2023-01-05T12:55:27;6.30;;;2.20;;
60610;SDS011;46439;51.164;13.572;2023-01-05T12:58:03;7.80;;;2.30;;
60610;SDS011;46439;51.164;13.572;2023-01-05T13:00:38;5.70;;;2.40;;
60610;SDS011;46439;51.164;13.572;2023-01-05T13:03:12;3.80;;;1.80;;
60610;SDS011;46439;51.164;13.572;2023-01-05T13:05:47;3.30;;;1.70;;
60610;SDS011;46439;51.164;13.572;2023-01-05T13:08:23;4.30;;;1.60;;
60610;SDS011;46439;51.164;13.572;2023-01-05T13:10:58;4.10;;;2.00;;
60610;SDS011;46439;51.164;13.572;2023-01-05T13:13:33;4.50;;;2.10;;
60610;SDS011;46439;51.164;13.572;2023-01-05T13:18:38;4.00;;;2.20;;
60610;SDS011;46439;51.164;13.572;2023-01-05T13:23:39;4.60;;;1.90;;
60610;SDS011;46439;51.164;13.572;2023-01-05T13:26:13;3.70;;;1.70;;
60610;SDS011;46439;51.164;13.572;2023-01-05T13:28:46;3.10;;;1.50;;
60610;SDS011;46439;51.164;13.572;2023-01-05T13:31:39;6.70;;;2.00;;
60610;SDS011;46439;51.164;13.572;2023-01-05T13:34:48;4.90;;;1.70;;
60610;SDS011;46439;51.164;13.572;2023-01-05T13:37:43;4.50;;;1.70;;
60610;SDS011;46439;51.164;13.572;2023-01-05T13:40:36;5.20;;;1.80;;
60610;SDS011;46439;51.164;13.572;2023-01-05T13:43:33;3.90;;;1.50;;
60610;SDS011;46439;51.164;13.572;2023-01-05T13:49:20;4.00;;;1.40;;
60610;SDS011;46439;51.164;13.572;2023-01-05T13:52:00;5.40;;;1.70;;
60610;SDS011;46439;51.164;13.572;2023-01-05T13:54:36;6.00;;;1.90;;
60610;SDS011;46439;51.164;13.572;2023-01-05T13:57:09;4.30;;;1.60;;
60610;SDS011;46439;51.164;13.572;2023-01-05T13:59:43;4.70;;;2.20;;
60610;SDS011;46439;51.164;13.572;2023-01-05T14:02:26;4.70;;;2.30;;
60610;SDS011;46439;51.164;13.572;2023-01-05T14:04:58;2.60;;;1.70;;
60610;SDS011;46439;51.164;13.572;2023-01-05T14:07:30;5.00;;;1.50;;
60610;SDS011;46439;51.164;13.572;2023-01-05T14:09:59;3.00;;;1.60;;
60610;SDS011;46439;51.164;13.572;2023-01-05T14:12:43;5.00;;;1.60;;
60610;SDS011;46439;51.164;13.572;2023-01-05T14:15:32;4.70;;;1.50;;
60610;SDS011;46439;51.164;13.572;2023-01-05T14:18:06;4.00;;;1.60;;
60610;SDS011;46439;51.164;13.572;2023-01-05T14:20:39;3.20;;;1.70;;
60610;SDS011;46439;51.164;13.572;2023-01-05T14:32:35;1.60;;;1.10;;
60610;SDS011;46439;51.164;13.572;2023-01-05T14:35:16;2.00;;;1.00;;
60610;SDS011;46439;51.164;13.572;2023-01-05T14:40:22;1.30;;;1.20;;
60610;SDS011;46439;51.164;13.572;2023-01-05T14:42:56;1.80;;;1.10;;
60610;SDS011;46439;51.164;13.572;2023-01-05T14:45:29;2.10;;;1.30;;
60610;SDS011;46439;51.164;13.572;2023-01-05T14:48:00;2.80;;;1.10;;
60610;SDS011;46439;51.164;13.572;2023-01-05T14:50:34;1.90;;;1.20;;
60610;SDS011;46439;51.164;13.572;2023-01-05T14:53:06;2.40;;;1.30;;
60610;SDS011;46439;51.164;13.572;2023-01-05T14:55:40;2.40;;;1.50;;
60610;SDS011;46439;51.164;13.572;2023-01-05T15:01:40;1.00;;;0.90;;
60610;SDS011;46439;51.164;13.572;2023-01-05T15:04:16;3.60;;;1.10;;
60610;SDS011;46439;51.164;13.572;2023-01-05T15:06:59;1.80;;;1.00;;
60610;SDS011;46439;51.164;13.572;2023-01-05T15:09:45;2.40;;;1.00;;
60610;SDS011;46439;51.164;13.572;2023-01-05T15:12:42;2.40;;;1.10;;
60610;SDS011;46439;51.164;13.572;2023-01-05T15:15:44;1.10;;;1.00;;
60610;SDS011;46439;51.164;13.572;2023-01-05T15:21:15;2.60;;;1.10;;
60610;SDS011;46439;51.164;13.572;2023-01-05T15:27:10;4.90;;;1.90;;
60610;SDS011;46439;51.164;13.572;2023-01-05T15:29:54;2.40;;;1.10;;
60610;SDS011;46439;51.164;13.572;2023-01-05T15:32:36;1.30;;;1.20;;
60610;SDS011;46439;51.164;13.572;2023-01-05T15:35:10;1.50;;;1.30;;
60610;SDS011;46439;51.164;13.572;2023-01-05T15:37:43;1.70;;;1.30;;
60610;SDS011;46439;51.164;13.572;2023-01-05T15:40:27;1.80;;;0.80;;
60610;SDS011;46439;51.164;13.572;2023-01-05T15:42:58;2.00;;;1.10;;
60610;SDS011;46439;51.164;13.572;2023-01-05T15:45:29;2.30;;;1.00;;
60610;SDS011;46439;51.164;13.572;2023-01-05T15:48:03;2.00;;;1.00;;
60610;SDS011;46439;51.164;13.572;2023-01-05T15:50:35;0.90;;;0.90;;
60610;SDS011;46439;51.164;13.572;2023-01-05T15:53:23;1.00;;;0.90;;
60610;SDS011;46439;51.164;13.572;2023-01-05T15:55:54;1.00;;;0.80;;
60610;SDS011;46439;51.164;13.572;2023-01-05T15:58:23;1.20;;;0.80;;
60610;SDS011;46439;51.164;13.572;2023-01-05T16:01:02;2.70;;;0.90;;
60610;SDS011;46439;51.164;13.572;2023-01-05T16:03:32;1.70;;;0.90;;
60610;SDS011;46439;51.164;13.572;2023-01-05T16:06:03;0.80;;;0.80;;
60610;SDS011;46439;51.164;13.572;2023-01-05T16:08:35;1.40;;;1.00;;
60610;SDS011;46439;51.164;13.572;2023-01-05T16:11:09;1.50;;;1.30;;
60610;SDS011;46439;51.164;13.572;2023-01-05T16:13:41;2.20;;;1.60;;